sensor_id;sensor_type;location;lat;lon;timestamp;pressure;altitude;pressure_sealevel;temperature;humidity
9538;BME280;4807;48.024;11.726;2024-03-02T00:02:33;93961.69;;;5.05;100.00
9538;BME280;4807;48.024;11.726;2024-03-02T00:05:43;93959.69;;;5.07;100.00
9538;BME280;4807;48.024;11.726;2024-03-02T00:08:51;93955.91;;;5.16;100.00
9538;BME280;4807;48.024;11.726;2024-03-02T00:12:00;93962.97;;;5.09;100.00
9538;BME280;4807;48.024;11.726;2024-03-02T00:15:45;93956.53;;;5.18;100.00
9538;BME280;4807;48.024;11.726;2024-03-02T00:18:54;93944.34;;;5.17;100.00
9538;BME280;4807;48.024;11.726;2024-03-02T00:22:05;93952.25;;;5.17;100.00
9538;BME280;4807;48.024;11.726;2024-03-02T00:25:13;93946.34;;;5.15;100.00
9538;BME280;4807;48.024;11.726;2024-03-02T00:28:24;93947.00;;;5.17;100.00
9538;BME280;4807;48.024;11.726;2024-03-02T00:31:32;93945.97;;;5.18;100.00
9538;BME280;4807;48.024;11.726;2024-03-02T00:34:40;93943.94;;;5.20;100.00
9538;BME280;4807;48.024;11.726;2024-03-02T00:37:50;93938.28;;;5.23;100.00
9538;BME280;4807;48.024;11.726;2024-03-02T00:41:02;93936.91;;;5.27;100.00
9538;BME280;4807;48.024;11.726;2024-03-02T00:44:16;93933.88;;;5.30;100.00
9538;BME280;4807;48.024;11.726;2024-03-02T00:47:28;93931.69;;;5.33;100.00
9538;BME280;4807;48.024;11.726;2024-03-02T00:50:36;93927.59;;;5.31;100.00
9538;BME280;4807;48.024;11.726;2024-03-02T00:53:46;93930.59;;;5.28;100.00
9538;BME280;4807;48.024;11.726;2024-03-02T00:56:55;93925.72;;;5.25;100.00
9538;BME280;4807;48.024;11.726;2024-03-02T01:00:06;93920.47;;;5.25;100.00
9538;BME280;4807;48.024;11.726;2024-03-02T01:03:21;93924.06;;;5.17;100.00
9538;BME280;4807;48.024;11.726;2024-03-02T01:06:30;93910.28;;;5.22;100.00
9538;BME280;4807;48.024;11.726;2024-03-02T01:09:40;93908.91;;;5.26;100.00
9538;BME280;4807;48.024;11.726;2024-03-02T01:12:48;93901.38;;;5.29;100.00
9538;BME280;4807;48.024;11.726;2024-03-02T01:15:57;93906.41;;;5.18;100.00
9538;BME280;4807;48.024;11.726;2024-03-02T01:19:05;93905.00;;;5.22;100.00
9538;BME280;4807;48.024;11.726;2024-03-02T01:22:13;93902.63;;;5.27;100.00
9538;BME280;4807;48.024;11.726;2024-03-02T01:25:23;93901.34;;;5.23;100.00
9538;BME280;4807;48.024;11.726;2024-03-02T01:28:32;93907.44;;;5.23;100.00
9538;BME280;4807;48.024;11.726;2024-03-02T01:31:40;93909.91;;;5.25;100.00
9538;BME280;4807;48.024;11.726;2024-03-02T01:34:49;93911.91;;;5.23;100.00
9538;BME280;4807;48.024;11.726;2024-03-02T01:37:58;93916.38;;;5.22;100.00
9538;BME280;4807;48.024;11.726;2024-03-02T01:41:08;93906.81;;;5.21;100.00
9538;BME280;4807;48.024;11.726;2024-03-02T01:44:16;93910.69;;;5.19;100.00
9538;BME280;4807;48.024;11.726;2024-03-02T01:47:25;93906.16;;;5.13;100.00
9538;BME280;4807;48.024;11.726;2024-03-02T01:50:34;93906.59;;;5.16;100.00
9538;BME280;4807;48.024;11.726;2024-03-02T01:53:42;93909.78;;;5.12;100.00
9538;BME280;4807;48.024;11.726;2024-03-02T01:56:52;93907.78;;;5.14;100.00
9538;BME280;4807;48.024;11.726;2024-03-02T02:00:00;93901.06;;;5.11;100.00
9538;BME280;4807;48.024;11.726;2024-03-02T02:03:17;93903.31;;;5.14;100.00
9538;BME280;4807;48.024;11.726;2024-03-02T02:06:26;93905.34;;;5.12;100.00
9538;BME280;4807;48.024;11.726;2024-03-02T02:09:35;93895.03;;;5.17;100.00
9538;BME280;4807;48.024;11.726;2024-03-02T02:12:45;93894.22;;;5.17;100.00
9538;BME280;4807;48.024;11.726;2024-03-02T02:15:53;93893.97;;;5.12;100.00
9538;BME280;4807;48.024;11.726;2024-03-02T02:19:01;93881.81;;;5.11;100.00
9538;BME280;4807;48.024;11.726;2024-03-02T02:22:11;93877.94;;;5.13;100.00
9538;BME280;4807;48.024;11.726;2024-03-02T02:25:19;93884.91;;;5.21;100.00
9538;BME280;4807;48.024;11.726;2024-03-02T02:28:27;93876.63;;;5.30;100.00
9538;BME280;4807;48.024;11.726;2024-03-02T02:31:40;93880.28;;;5.29;100.00
9538;BME280;4807;48.024;11.726;2024-03-02T02:34:52;93885.84;;;5.41;100.00
9538;BME280;4807;48.024;11.726;2024-03-02T02:38:03;93880.47;;;5.28;100.00
9538;BME280;4807;48.024;11.726;2024-03-02T02:41:11;93873.78;;;5.25;100.00
9538;BME280;4807;48.024;11.726;2024-03-02T02:44:19;93872.78;;;5.26;100.00
9538;BME280;4807;48.024;11.726;2024-03-02T02:47:28;93866.91;;;5.31;100.00
9538;BME280;4807;48.024;11.726;2024-03-02T02:50:37;93863.22;;;5.25;100.00
9538;BME280;4807;48.024;11.726;2024-03-02T02:53:46;93863.25;;;5.32;100.00
9538;BME280;4807;48.024;11.726;2024-03-02T02:56:55;93858.91;;;5.18;100.00
9538;BME280;4807;48.024;11.726;2024-03-02T03:00:05;93866.44;;;5.21;100.00
9538;BME280;4807;48.024;11.726;2024-03-02T03:03:17;93859.91;;;5.17;100.00
9538;BME280;4807;48.024;11.726;2024-03-02T03:06:25;93866.22;;;5.22;100.00
9538;BME280;4807;48.024;11.726;2024-03-02T03:09:37;93858.34;;;5.29;100.00
9538;BME280;4807;48.024;11.726;2024-03-02T03:12:46;93866.03;;;5.24;100.00
9538;BME280;4807;48.024;11.726;2024-03-02T03:15:54;93856.13;;;5.26;100.00
9538;BME280;4807;48.024;11.726;2024-03-02T03:19:03;93864.22;;;5.24;100.00
9538;BME280;4807;48.024;11.726;2024-03-02T03:22:11;93856.50;;;5.23;100.00
9538;BME280;4807;48.024;11.726;2024-03-02T03:25:21;93867.69;;;5.25;100.00
9538;BME280;4807;48.024;11.726;2024-03-02T03:28:29;93869.75;;;5.36;100.00
9538;BME280;4807;48.024;11.726;2024-03-02T03:31:37;93880.31;;;5.36;100.00
9538;BME280;4807;48.024;11.726;2024-03-02T03:34:46;93878.72;;;5.35;100.00
9538;BME280;4807;48.024;11.726;2024-03-02T03:37:55;93877.72;;;5.08;100.00
9538;BME280;4807;48.024;11.726;2024-03-02T03:41:05;93886.59;;;5.01;100.00
9538;BME280;4807;48.024;11.726;2024-03-02T03:44:13;93880.84;;;4.90;100.00
9538;BME280;4807;48.024;11.726;2024-03-02T03:47:21;93894.41;;;4.87;100.00
9538;BME280;4807;48.024;11.726;2024-03-02T03:50:29;93900.50;;;4.88;100.00
9538;BME280;4807;48.024;11.726;2024-03-02T03:53:38;93894.38;;;4.81;100.00
9538;BME280;4807;48.024;11.726;2024-03-02T03:56:48;93898.00;;;4.80;100.00
9538;BME280;4807;48.024;11.726;2024-03-02T03:59:57;93901.28;;;4.82;100.00
9538;BME280;4807;48.024;11.726;2024-03-02T04:03:05;93897.63;;;4.83;100.00
9538;BME280;4807;48.024;11.726;2024-03-02T04:06:14;93902.31;;;4.87;100.00
9538;BME280;4807;48.024;11.726;2024-03-02T04:09:24;93906.22;;;4.91;100.00
9538;BME280;4807;48.024;11.726;2024-03-02T04:12:34;93900.75;;;4.93;100.00
9538;BME280;4807;48.024;11.726;2024-03-02T04:15:42;93905.16;;;4.86;100.00
9538;BME280;4807;48.024;11.726;2024-03-02T04:18:50;93908.22;;;4.89;100.00
9538;BME280;4807;48.024;11.726;2024-03-02T04:21:59;93904.00;;;4.95;100.00
9538;BME280;4807;48.024;11.726;2024-03-02T04:25:21;93905.03;;;4.94;100.00
9538;BME280;4807;48.024;11.726;2024-03-02T04:28:30;93904.81;;;4.95;100.00
9538;BME280;4807;48.024;11.726;2024-03-02T04:31:39;93904.06;;;5.02;100.00
9538;BME280;4807;48.024;11.726;2024-03-02T04:34:51;93908.34;;;5.03;100.00
9538;BME280;4807;48.024;11.726;2024-03-02T04:37:59;93909.03;;;5.18;100.00
9538;BME280;4807;48.024;11.726;2024-03-02T04:41:08;93901.56;;;5.28;100.00
9538;BME280;4807;48.024;11.726;2024-03-02T04:44:17;93900.34;;;5.24;100.00
9538;BME280;4807;48.024;11.726;2024-03-02T04:47:26;93900.72;;;5.21;100.00
9538;BME280;4807;48.024;11.726;2024-03-02T04:50:34;93898.06;;;5.14;100.00
9538;BME280;4807;48.024;11.726;2024-03-02T04:53:42;93899.25;;;5.12;100.00
9538;BME280;4807;48.024;11.726;2024-03-02T04:56:51;93910.94;;;5.30;100.00
9538;BME280;4807;48.024;11.726;2024-03-02T05:00:01;93924.31;;;5.29;100.00
9538;BME280;4807;48.024;11.726;2024-03-02T05:03:14;93933.03;;;5.23;100.00
9538;BME280;4807;48.024;11.726;2024-03-02T05:06:22;93937.78;;;5.06;100.00
9538;BME280;4807;48.024;11.726;2024-03-02T05:09:30;93938.06;;;5.18;100.00
9538;BME280;4807;48.024;11.726;2024-03-02T05:12:39;93940.84;;;5.10;100.00
9538;BME280;4807;48.024;11.726;2024-03-02T05:16:09;93940.56;;;4.98;100.00
9538;BME280;4807;48.024;11.726;2024-03-02T05:19:17;93939.50;;;4.92;100.00
9538;BME280;4807;48.024;11.726;2024-03-02T05:22:25;93951.44;;;4.88;100.00
9538;BME280;4807;48.024;11.726;2024-03-02T05:25:33;93950.97;;;4.78;100.00
9538;BME280;4807;48.024;11.726;2024-03-02T05:28:42;93946.28;;;4.80;100.00
9538;BME280;4807;48.024;11.726;2024-03-02T05:31:52;93947.91;;;4.81;100.00
9538;BME280;4807;48.024;11.726;2024-03-02T05:35:00;93950.97;;;4.78;100.00
9538;BME280;4807;48.024;11.726;2024-03-02T05:38:10;93949.78;;;4.87;100.00
9538;BME280;4807;48.024;11.726;2024-03-02T05:41:18;93952.69;;;4.92;100.00
9538;BME280;4807;48.024;11.726;2024-03-02T05:44:26;93956.28;;;4.85;100.00
9538;BME280;4807;48.024;11.726;2024-03-02T05:47:36;93969.66;;;4.83;100.00
9538;BME280;4807;48.024;11.726;2024-03-02T05:50:45;93954.25;;;4.87;100.00
9538;BME280;4807;48.024;11.726;2024-03-02T05:53:54;93951.44;;;4.88;100.00
9538;BME280;4807;48.024;11.726;2024-03-02T05:57:02;93960.97;;;4.89;100.00
9538;BME280;4807;48.024;11.726;2024-03-02T06:00:28;93960.19;;;4.95;100.00
9538;BME280;4807;48.024;11.726;2024-03-02T06:03:39;93957.63;;;5.02;100.00
9538;BME280;4807;48.024;11.726;2024-03-02T06:06:48;93959.75;;;5.13;100.00
9538;BME280;4807;48.024;11.726;2024-03-02T06:09:57;93956.78;;;5.23;100.00
9538;BME280;4807;48.024;11.726;2024-03-02T06:13:06;93960.59;;;5.20;100.00
9538;BME280;4807;48.024;11.726;2024-03-02T06:16:15;93963.91;;;5.29;100.00
9538;BME280;4807;48.024;11.726;2024-03-02T06:19:25;93960.25;;;5.30;100.00
9538;BME280;4807;48.024;11.726;2024-03-02T06:22:35;93968.44;;;5.35;100.00
9538;BME280;4807;48.024;11.726;2024-03-02T06:25:43;93962.53;;;5.33;100.00
9538;BME280;4807;48.024;11.726;2024-03-02T06:28:52;93953.47;;;5.42;100.00
9538;BME280;4807;48.024;11.726;2024-03-02T06:32:01;93955.13;;;5.50;100.00
9538;BME280;4807;48.024;11.726;2024-03-02T06:35:11;93962.44;;;5.54;100.00
9538;BME280;4807;48.024;11.726;2024-03-02T06:38:19;93957.25;;;5.67;100.00
9538;BME280;4807;48.024;11.726;2024-03-02T06:41:28;93960.91;;;5.66;100.00
9538;BME280;4807;48.024;11.726;2024-03-02T06:44:36;93954.03;;;5.72;100.00
9538;BME280;4807;48.024;11.726;2024-03-02T06:47:44;93955.31;;;5.83;100.00
9538;BME280;4807;48.024;11.726;2024-03-02T06:50:54;93959.63;;;5.90;100.00
9538;BME280;4807;48.024;11.726;2024-03-02T06:54:03;93959.47;;;5.98;100.00
9538;BME280;4807;48.024;11.726;2024-03-02T06:57:11;93959.09;;;6.08;100.00
9538;BME280;4807;48.024;11.726;2024-03-02T07:00:20;93956.25;;;6.09;100.00
9538;BME280;4807;48.024;11.726;2024-03-02T07:03:31;93958.31;;;6.14;100.00
9538;BME280;4807;48.024;11.726;2024-03-02T07:06:41;93953.22;;;6.19;100.00
9538;BME280;4807;48.024;11.726;2024-03-02T07:09:50;93955.31;;;6.30;100.00
9538;BME280;4807;48.024;11.726;2024-03-02T07:12:58;93952.69;;;6.30;100.00
9538;BME280;4807;48.024;11.726;2024-03-02T07:16:07;93961.44;;;6.44;99.27
9538;BME280;4807;48.024;11.726;2024-03-02T07:19:34;93958.81;;;6.44;99.35
9538;BME280;4807;48.024;11.726;2024-03-02T07:22:45;93959.63;;;6.58;99.26
9538;BME280;4807;48.024;11.726;2024-03-02T07:25:53;93960.50;;;6.65;98.49
9538;BME280;4807;48.024;11.726;2024-03-02T07:29:06;93959.28;;;6.80;97.56
9538;BME280;4807;48.024;11.726;2024-03-02T07:32:14;93967.84;;;6.96;97.06
9538;BME280;4807;48.024;11.726;2024-03-02T07:35:23;93955.63;;;7.01;97.45
9538;BME280;4807;48.024;11.726;2024-03-02T07:38:36;93957.25;;;7.02;96.45
9538;BME280;4807;48.024;11.726;2024-03-02T07:41:45;93958.47;;;7.06;95.46
9538;BME280;4807;48.024;11.726;2024-03-02T07:44:54;93953.41;;;7.11;95.59
9538;BME280;4807;48.024;11.726;2024-03-02T07:48:03;93961.34;;;7.18;95.26
9538;BME280;4807;48.024;11.726;2024-03-02T07:51:11;93967.25;;;7.13;94.17
9538;BME280;4807;48.024;11.726;2024-03-02T07:54:22;93973.53;;;7.06;95.09
9538;BME280;4807;48.024;11.726;2024-03-02T07:57:31;93974.53;;;6.98;95.31
9538;BME280;4807;48.024;11.726;2024-03-02T08:00:39;93980.47;;;7.00;95.74
9538;BME280;4807;48.024;11.726;2024-03-02T08:03:48;93983.72;;;7.15;95.62
9538;BME280;4807;48.024;11.726;2024-03-02T08:06:57;93989.44;;;7.12;94.89
9538;BME280;4807;48.024;11.726;2024-03-02T08:10:08;93987.38;;;6.95;95.85
9538;BME280;4807;48.024;11.726;2024-03-02T08:13:17;93993.72;;;7.26;95.56
9538;BME280;4807;48.024;11.726;2024-03-02T08:16:25;93986.13;;;7.63;95.86
9538;BME280;4807;48.024;11.726;2024-03-02T08:19:34;93989.84;;;7.29;95.23
9538;BME280;4807;48.024;11.726;2024-03-02T08:22:42;93998.59;;;7.16;95.32
9538;BME280;4807;48.024;11.726;2024-03-02T08:25:52;93996.75;;;7.30;97.30
9538;BME280;4807;48.024;11.726;2024-03-02T08:29:01;93998.34;;;7.84;93.65
9538;BME280;4807;48.024;11.726;2024-03-02T08:32:11;93988.47;;;8.17;91.37
9538;BME280;4807;48.024;11.726;2024-03-02T08:35:19;93996.94;;;8.46;88.92
9538;BME280;4807;48.024;11.726;2024-03-02T08:38:29;93992.75;;;8.69;86.97
9538;BME280;4807;48.024;11.726;2024-03-02T08:41:39;94000.41;;;8.84;85.06
9538;BME280;4807;48.024;11.726;2024-03-02T08:44:47;93983.25;;;9.18;84.43
9538;BME280;4807;48.024;11.726;2024-03-02T08:47:56;93992.50;;;9.58;83.67
9538;BME280;4807;48.024;11.726;2024-03-02T08:51:05;93992.16;;;9.73;80.28
9538;BME280;4807;48.024;11.726;2024-03-02T08:54:14;93990.28;;;9.99;77.57
9538;BME280;4807;48.024;11.726;2024-03-02T08:57:24;93984.38;;;10.21;78.41
9538;BME280;4807;48.024;11.726;2024-03-02T09:00:32;93992.50;;;10.45;77.10
9538;BME280;4807;48.024;11.726;2024-03-02T09:03:41;93991.50;;;10.39;76.97
9538;BME280;4807;48.024;11.726;2024-03-02T09:06:51;93989.66;;;10.40;76.41
9538;BME280;4807;48.024;11.726;2024-03-02T09:10:00;93995.16;;;10.75;77.40
9538;BME280;4807;48.024;11.726;2024-03-02T09:13:10;93995.97;;;10.45;77.73
9538;BME280;4807;48.024;11.726;2024-03-02T09:16:19;93993.41;;;10.98;75.81
9538;BME280;4807;48.024;11.726;2024-03-02T09:19:27;93997.97;;;11.51;74.20
9538;BME280;4807;48.024;11.726;2024-03-02T09:22:35;93997.78;;;12.11;71.29
9538;BME280;4807;48.024;11.726;2024-03-02T09:25:44;93993.00;;;12.36;68.98
9538;BME280;4807;48.024;11.726;2024-03-02T09:28:53;93986.66;;;11.91;67.76
9538;BME280;4807;48.024;11.726;2024-03-02T09:32:01;93989.50;;;11.66;67.92
9538;BME280;4807;48.024;11.726;2024-03-02T09:35:10;93998.75;;;11.52;69.38
9538;BME280;4807;48.024;11.726;2024-03-02T09:38:20;93988.41;;;11.32;69.64
9538;BME280;4807;48.024;11.726;2024-03-02T09:41:29;93986.09;;;11.35;70.54
9538;BME280;4807;48.024;11.726;2024-03-02T09:44:39;93985.59;;;11.15;69.74
9538;BME280;4807;48.024;11.726;2024-03-02T09:47:48;93975.31;;;11.30;70.21
9538;BME280;4807;48.024;11.726;2024-03-02T09:50:56;93966.31;;;11.43;69.66
9538;BME280;4807;48.024;11.726;2024-03-02T09:54:07;93967.00;;;11.62;69.75
9538;BME280;4807;48.024;11.726;2024-03-02T09:57:28;93965.03;;;11.69;68.41
9538;BME280;4807;48.024;11.726;2024-03-02T10:00:38;93968.09;;;11.96;67.65
9538;BME280;4807;48.024;11.726;2024-03-02T10:03:48;93969.34;;;12.16;65.15
9538;BME280;4807;48.024;11.726;2024-03-02T10:07:19;93964.94;;;12.22;65.93
9538;BME280;4807;48.024;11.726;2024-03-02T10:10:35;93963.31;;;12.21;66.38
9538;BME280;4807;48.024;11.726;2024-03-02T10:13:47;93963.81;;;12.06;64.17
9538;BME280;4807;48.024;11.726;2024-03-02T10:17:03;93953.72;;;11.97;64.89
9538;BME280;4807;48.024;11.726;2024-03-02T10:20:27;93963.44;;;12.03;65.68
9538;BME280;4807;48.024;11.726;2024-03-02T10:23:36;93951.09;;;12.25;65.31
9538;BME280;4807;48.024;11.726;2024-03-02T10:26:46;93947.63;;;12.36;66.70
9538;BME280;4807;48.024;11.726;2024-03-02T10:29:54;93949.06;;;12.55;66.59
9538;BME280;4807;48.024;11.726;2024-03-02T10:33:06;93944.84;;;12.71;65.01
9538;BME280;4807;48.024;11.726;2024-03-02T10:36:15;93939.19;;;12.84;64.91
9538;BME280;4807;48.024;11.726;2024-03-02T10:39:24;93942.25;;;12.48;65.76
9538;BME280;4807;48.024;11.726;2024-03-02T10:42:35;93933.28;;;12.54;63.84
9538;BME280;4807;48.024;11.726;2024-03-02T10:45:49;93928.63;;;12.61;63.43
9538;BME280;4807;48.024;11.726;2024-03-02T10:49:00;93919.59;;;12.79;63.32
9538;BME280;4807;48.024;11.726;2024-03-02T10:52:13;93916.81;;;12.74;63.23
9538;BME280;4807;48.024;11.726;2024-03-02T10:55:21;93916.06;;;12.61;64.23
9538;BME280;4807;48.024;11.726;2024-03-02T10:58:32;93914.16;;;12.45;64.92
9538;BME280;4807;48.024;11.726;2024-03-02T11:01:44;93903.81;;;12.49;64.86
9538;BME280;4807;48.024;11.726;2024-03-02T11:05:00;93897.19;;;12.11;65.79
9538;BME280;4807;48.024;11.726;2024-03-02T11:08:18;93901.72;;;12.22;65.90
9538;BME280;4807;48.024;11.726;2024-03-02T11:11:32;93893.88;;;12.33;65.54
9538;BME280;4807;48.024;11.726;2024-03-02T11:14:42;93877.22;;;12.54;65.01
9538;BME280;4807;48.024;11.726;2024-03-02T11:17:52;93876.22;;;12.72;65.48
9538;BME280;4807;48.024;11.726;2024-03-02T11:21:03;93878.63;;;12.73;63.64
9538;BME280;4807;48.024;11.726;2024-03-02T11:24:32;93866.66;;;12.76;62.87
9538;BME280;4807;48.024;11.726;2024-03-02T11:28:05;93863.53;;;12.79;62.88
9538;BME280;4807;48.024;11.726;2024-03-02T11:31:16;93856.34;;;12.96;63.71
9538;BME280;4807;48.024;11.726;2024-03-02T11:34:29;93846.94;;;12.93;62.75
9538;BME280;4807;48.024;11.726;2024-03-02T11:37:40;93849.22;;;13.02;62.67
9538;BME280;4807;48.024;11.726;2024-03-02T11:40:48;93852.72;;;12.74;63.00
9538;BME280;4807;48.024;11.726;2024-03-02T11:43:57;93844.81;;;12.79;62.83
9538;BME280;4807;48.024;11.726;2024-03-02T11:47:10;93842.88;;;12.91;63.70
9538;BME280;4807;48.024;11.726;2024-03-02T11:50:29;93827.91;;;12.90;63.66
9538;BME280;4807;48.024;11.726;2024-03-02T11:53:40;93819.47;;;12.98;62.61
9538;BME280;4807;48.024;11.726;2024-03-02T11:56:50;93823.63;;;12.89;62.79
9538;BME280;4807;48.024;11.726;2024-03-02T11:59:58;93823.78;;;12.99;63.23
9538;BME280;4807;48.024;11.726;2024-03-02T12:03:13;93819.41;;;12.93;63.53
9538;BME280;4807;48.024;11.726;2024-03-02T12:06:22;93808.00;;;12.81;64.11
9538;BME280;4807;48.024;11.726;2024-03-02T12:09:33;93809.84;;;12.64;64.29
9538;BME280;4807;48.024;11.726;2024-03-02T12:12:42;93807.59;;;12.72;64.29
9538;BME280;4807;48.024;11.726;2024-03-02T12:15:54;93802.25;;;12.89;64.23
9538;BME280;4807;48.024;11.726;2024-03-02T12:19:03;93804.38;;;13.04;61.98
9538;BME280;4807;48.024;11.726;2024-03-02T12:22:12;93797.88;;;12.99;62.02
9538;BME280;4807;48.024;11.726;2024-03-02T12:25:23;93803.22;;;12.99;60.78
9538;BME280;4807;48.024;11.726;2024-03-02T12:28:33;93787.69;;;12.96;60.52
9538;BME280;4807;48.024;11.726;2024-03-02T12:31:42;93789.97;;;12.88;60.76
9538;BME280;4807;48.024;11.726;2024-03-02T12:34:52;93783.69;;;12.82;61.61
9538;BME280;4807;48.024;11.726;2024-03-02T12:38:00;93778.78;;;12.91;61.38
9538;BME280;4807;48.024;11.726;2024-03-02T12:41:10;93782.66;;;12.83;61.40
9538;BME280;4807;48.024;11.726;2024-03-02T12:44:19;93776.84;;;12.86;61.84
9538;BME280;4807;48.024;11.726;2024-03-02T12:47:28;93773.59;;;12.68;62.28
9538;BME280;4807;48.024;11.726;2024-03-02T12:50:39;93763.72;;;12.51;62.17
9538;BME280;4807;48.024;11.726;2024-03-02T12:53:54;93764.59;;;12.40;61.98
9538;BME280;4807;48.024;11.726;2024-03-02T12:57:07;93761.19;;;12.45;61.49
9538;BME280;4807;48.024;11.726;2024-03-02T13:00:19;93763.06;;;12.44;61.04
9538;BME280;4807;48.024;11.726;2024-03-02T13:03:30;93754.31;;;12.49;61.29
9538;BME280;4807;48.024;11.726;2024-03-02T13:06:40;93748.91;;;12.44;62.30
9538;BME280;4807;48.024;11.726;2024-03-02T13:09:50;93741.63;;;12.39;63.19
9538;BME280;4807;48.024;11.726;2024-03-02T13:13:01;93739.75;;;12.23;63.42
9538;BME280;4807;48.024;11.726;2024-03-02T13:16:10;93730.50;;;12.14;65.04
9538;BME280;4807;48.024;11.726;2024-03-02T13:19:19;93734.44;;;12.11;66.17
9538;BME280;4807;48.024;11.726;2024-03-02T13:22:28;93734.28;;;12.18;66.20
9538;BME280;4807;48.024;11.726;2024-03-02T13:25:36;93733.25;;;12.19;66.72
9538;BME280;4807;48.024;11.726;2024-03-02T13:28:47;93719.69;;;12.20;65.95
9538;BME280;4807;48.024;11.726;2024-03-02T13:31:55;93725.75;;;12.16;65.07
9538;BME280;4807;48.024;11.726;2024-03-02T13:35:05;93728.88;;;12.13;65.82
9538;BME280;4807;48.024;11.726;2024-03-02T13:38:17;93721.66;;;11.97;66.48
9538;BME280;4807;48.024;11.726;2024-03-02T13:41:27;93717.72;;;11.99;67.08
9538;BME280;4807;48.024;11.726;2024-03-02T13:44:38;93709.16;;;12.14;67.10
9538;BME280;4807;48.024;11.726;2024-03-02T13:47:47;93709.56;;;12.06;66.53
9538;BME280;4807;48.024;11.726;2024-03-02T13:50:58;93706.72;;;12.12;66.73
9538;BME280;4807;48.024;11.726;2024-03-02T13:54:06;93711.25;;;12.12;64.84
9538;BME280;4807;48.024;11.726;2024-03-02T13:57:16;93708.66;;;12.17;62.92
9538;BME280;4807;48.024;11.726;2024-03-02T14:00:32;93711.81;;;12.14;62.41
9538;BME280;4807;48.024;11.726;2024-03-02T14:03:41;93712.63;;;12.14;61.43
9538;BME280;4807;48.024;11.726;2024-03-02T14:06:50;93715.31;;;12.14;62.11
9538;BME280;4807;48.024;11.726;2024-03-02T14:09:58;93698.81;;;12.17;61.26
9538;BME280;4807;48.024;11.726;2024-03-02T14:13:07;93705.25;;;12.05;61.92
9538;BME280;4807;48.024;11.726;2024-03-02T14:16:17;93689.66;;;11.97;62.57
9538;BME280;4807;48.024;11.726;2024-03-02T14:19:26;93690.28;;;11.87;62.34
9538;BME280;4807;48.024;11.726;2024-03-02T14:22:35;93682.03;;;11.89;63.70
9538;BME280;4807;48.024;11.726;2024-03-02T14:25:44;93689.06;;;11.95;64.97
9538;BME280;4807;48.024;11.726;2024-03-02T14:28:53;93679.88;;;12.02;64.47
9538;BME280;4807;48.024;11.726;2024-03-02T14:32:06;93678.41;;;11.95;65.33
9538;BME280;4807;48.024;11.726;2024-03-02T14:35:14;93670.41;;;11.95;65.75
9538;BME280;4807;48.024;11.726;2024-03-02T14:38:23;93668.31;;;11.97;65.65
9538;BME280;4807;48.024;11.726;2024-03-02T14:41:32;93666.53;;;12.02;65.87
9538;BME280;4807;48.024;11.726;2024-03-02T14:44:40;93659.34;;;12.03;66.57
9538;BME280;4807;48.024;11.726;2024-03-02T14:47:51;93660.50;;;12.07;66.00
9538;BME280;4807;48.024;11.726;2024-03-02T14:51:00;93657.31;;;12.10;66.62
9538;BME280;4807;48.024;11.726;2024-03-02T14:54:09;93641.41;;;12.15;66.91
9538;BME280;4807;48.024;11.726;2024-03-02T14:57:17;93644.47;;;12.07;67.63
9538;BME280;4807;48.024;11.726;2024-03-02T15:00:26;93648.47;;;11.93;67.76
9538;BME280;4807;48.024;11.726;2024-03-02T15:03:36;93658.69;;;11.96;67.99
9538;BME280;4807;48.024;11.726;2024-03-02T15:06:44;93652.97;;;12.04;69.14
9538;BME280;4807;48.024;11.726;2024-03-02T15:09:54;93656.84;;;12.13;68.72
9538;BME280;4807;48.024;11.726;2024-03-02T15:13:03;93640.59;;;11.98;69.64
9538;BME280;4807;48.024;11.726;2024-03-02T15:16:14;93638.78;;;11.87;70.52
9538;BME280;4807;48.024;11.726;2024-03-02T15:19:25;93640.88;;;11.84;70.31
9538;BME280;4807;48.024;11.726;2024-03-02T15:22:34;93638.94;;;11.80;70.29
9538;BME280;4807;48.024;11.726;2024-03-02T15:25:43;93632.00;;;11.79;69.89
9538;BME280;4807;48.024;11.726;2024-03-02T15:28:52;93633.72;;;11.73;70.53
9538;BME280;4807;48.024;11.726;2024-03-02T15:32:03;93626.19;;;11.70;71.48
9538;BME280;4807;48.024;11.726;2024-03-02T15:35:15;93630.97;;;11.68;71.69
9538;BME280;4807;48.024;11.726;2024-03-02T15:38:24;93629.38;;;11.67;71.54
9538;BME280;4807;48.024;11.726;2024-03-02T15:41:43;93630.31;;;11.61;71.88
9538;BME280;4807;48.024;11.726;2024-03-02T15:44:52;93628.94;;;11.59;72.21
9538;BME280;4807;48.024;11.726;2024-03-02T15:48:01;93626.75;;;11.56;70.89
9538;BME280;4807;48.024;11.726;2024-03-02T15:51:12;93627.13;;;11.47;70.39
9538;BME280;4807;48.024;11.726;2024-03-02T15:54:20;93638.50;;;11.43;71.56
9538;BME280;4807;48.024;11.726;2024-03-02T15:57:29;93632.03;;;11.39;72.08
9538;BME280;4807;48.024;11.726;2024-03-02T16:00:37;93631.44;;;11.37;73.64
9538;BME280;4807;48.024;11.726;2024-03-02T16:03:47;93630.09;;;11.34;73.24
9538;BME280;4807;48.024;11.726;2024-03-02T16:06:59;93635.91;;;11.20;74.26
9538;BME280;4807;48.024;11.726;2024-03-02T16:10:08;93628.63;;;11.15;74.73
9538;BME280;4807;48.024;11.726;2024-03-02T16:13:17;93626.56;;;11.05;74.89
9538;BME280;4807;48.024;11.726;2024-03-02T16:16:25;93616.19;;;10.92;76.36
9538;BME280;4807;48.024;11.726;2024-03-02T16:19:33;93612.72;;;10.80;77.05
9538;BME280;4807;48.024;11.726;2024-03-02T16:22:47;93606.63;;;10.68;77.28
9538;BME280;4807;48.024;11.726;2024-03-02T16:25:56;93617.63;;;10.60;77.29
9538;BME280;4807;48.024;11.726;2024-03-02T16:29:04;93610.94;;;10.46;78.12
9538;BME280;4807;48.024;11.726;2024-03-02T16:32:13;93618.56;;;10.30;78.94
9538;BME280;4807;48.024;11.726;2024-03-02T16:35:25;93616.09;;;10.06;80.18
9538;BME280;4807;48.024;11.726;2024-03-02T16:38:35;93612.97;;;9.97;80.86
9538;BME280;4807;48.024;11.726;2024-03-02T16:41:43;93620.69;;;9.87;81.80
9538;BME280;4807;48.024;11.726;2024-03-02T16:44:54;93615.00;;;9.72;82.08
9538;BME280;4807;48.024;11.726;2024-03-02T16:48:05;93610.84;;;9.64;82.25
9538;BME280;4807;48.024;11.726;2024-03-02T16:51:13;93609.66;;;9.60;82.81
9538;BME280;4807;48.024;11.726;2024-03-02T16:54:23;93621.03;;;9.49;82.73
9538;BME280;4807;48.024;11.726;2024-03-02T16:57:32;93617.19;;;9.33;83.71
9538;BME280;4807;48.024;11.726;2024-03-02T17:00:40;93630.06;;;9.18;84.22
9538;BME280;4807;48.024;11.726;2024-03-02T17:03:50;93624.22;;;8.98;85.44